Terminal Aerodrome Forecast
Issued by NWS Memphis, TN

Home | Current Version | Previous Version | Text Only | Print | Product List | Glossary On
Versions: 1 2 3 4 5 6 7 8 9 10 11 12 13 14
719
FTUS44 KMEG 092359 AAA
TAFMKL
TAF AMD
KMKL 092359Z 1000/1024 32006KT P6SM BKN050
     FM100300 31006KT P6SM FEW050 FEW250
     FM101400 30010KT P6SM SCT050 BKN120
     FM102300 VRB03KT P6SM FEW120=

USA.gov is the U.S. government's official web portal to all federal, state and local government web resources and services.